KMYF/MYF METAR and TAF weather

Enter ICAO airport designator
Station Type Date Time Source
KMYF METAR 2019/06/18 04:53 UTC NOAA

KMYF 180453Z AUTO 00000KT 10SM OVC014 16/13 A2992 RMK AO2 SLP130 T01610128


Station Type Date Time Source
KMYF Decoded METAR 2019/06/18 04:53 UTC NOAA

SAN DIEGO MONTGOMERY FIELD, CA, United States (KMYF) 32-49N 117-08W 136M
Jun 18, 2019 - 12:53 AM EDT / 2019.06.18 0453 UTC
Wind: Calm:0
Visibility: 10 mile(s):0
Sky conditions: overcast
Temperature: 61.0 F (16.1 C)
Dew Point: 55.0 F (12.8 C)
Relative Humidity: 80%
Pressure (altimeter): 29.92 in. Hg (1013 hPa)
ob: KMYF 180453Z AUTO 00000KT 10SM OVC014 16/13 A2992 RMK AO2 SLP130 T01610128
cycle: 5

Station Type Date Time Source
KMYF TAF UTC NOAA

Error!

Example: see airport list